Time;durP1;ratioP1;P1;durP2;ratioP2;P2;SDS_P1;SDS_P2;PMS_P1;PMS_P2;Temp;Humidity;BMP_temperature;BMP_pressure;BME280_temperature;BME280_humidity;BME280_pressure;Samples;Min_cycle;Max_cycle;Signal;HPM_P1;HPM_P2
2023/07/01 00:00:51;;;;;;;12.80;7.03;;;;;;;20.45;60.25;94895.75;5148380;27;20035;-79
2023/07/01 00:03:18;;;;;;;20.85;7.68;;;;;;;20.36;60.19;94887.06;5154081;27;20553;-79
2023/07/01 00:05:43;;;;;;;15.95;7.40;;;;;;;20.41;60.87;94928.00;5154300;27;20031;-79
2023/07/01 00:08:09;;;;;;;20.17;7.95;;;;;;;20.36;60.55;94908.63;5153532;27;20504;-79
2023/07/01 00:10:34;;;;;;;21.40;8.07;;;;;;;20.17;60.86;94893.03;5135149;27;20421;-79
2023/07/01 00:13:00;;;;;;;15.57;6.93;;;;;;;20.18;60.94;94905.38;5154146;27;20626;-79
2023/07/01 00:15:25;;;;;;;18.70;7.03;;;;;;;19.88;61.08;94856.44;5132210;27;20533;-79
2023/07/01 00:17:50;;;;;;;13.32;7.38;;;;;;;20.23;61.23;94902.44;5147181;27;20038;-79
2023/07/01 00:20:16;;;;;;;22.40;7.50;;;;;;;20.16;61.37;94896.06;5128405;27;20084;-79
2023/07/01 00:22:41;;;;;;;18.13;7.78;;;;;;;19.77;61.51;94838.38;5129700;27;20070;-79
2023/07/01 00:25:07;;;;;;;20.40;7.75;;;;;;;19.96;61.23;94874.34;5126324;27;20033;-79
2023/07/01 00:27:33;;;;;;;11.43;7.63;;;;;;;19.97;61.04;94867.06;5136578;27;20559;-79
2023/07/01 00:29:58;;;;;;;10.50;6.70;;;;;;;20.19;60.97;94901.56;5148093;27;20027;-79
2023/07/01 00:32:24;;;;;;;18.08;7.75;;;;;;;19.72;60.71;94833.25;5144002;27;20031;-79
2023/07/01 00:34:49;;;;;;;17.58;6.93;;;;;;;20.10;60.70;94884.75;5153060;27;20071;-79
2023/07/01 00:37:14;;;;;;;10.50;6.90;;;;;;;20.36;60.44;94914.78;5119752;27;20024;-79
2023/07/01 00:39:40;;;;;;;15.60;7.07;;;;;;;20.16;60.21;94877.22;5127605;27;20420;-79
2023/07/01 00:42:05;;;;;;;10.60;6.93;;;;;;;20.26;60.46;94903.66;5141105;27;20031;-79
2023/07/01 00:44:31;;;;;;;16.27;6.60;;;;;;;20.25;60.41;94881.34;5153258;27;20525;-78
2023/07/01 00:46:56;;;;;;;12.13;6.95;;;;;;;19.89;60.44;94823.00;5152940;27;20118;-79
2023/07/01 00:49:22;;;;;;;13.98;7.50;;;;;;;20.11;60.24;94861.31;5153045;27;20038;-79
2023/07/01 00:51:47;;;;;;;18.52;7.70;;;;;;;20.21;60.29;94885.84;5132937;27;20517;-79
2023/07/01 00:54:13;;;;;;;10.20;6.75;;;;;;;20.12;60.44;94866.34;5130441;27;20063;-79
2023/07/01 00:56:40;;;;;;;14.75;6.50;;;;;;;20.19;60.33;94877.31;5145095;27;20043;-79
2023/07/01 00:59:05;;;;;;;15.20;7.13;;;;;;;20.27;60.30;94911.41;5126954;27;20034;-79
2023/07/01 01:01:36;;;;;;;13.15;6.20;;;;;;;19.92;60.23;94856.50;5125595;27;20039;-77
2023/07/01 01:04:19;;;;;;;11.10;7.10;;;;;;;20.28;60.38;94909.50;5128082;27;20035;-77
2023/07/01 01:06:52;;;;;;;12.52;7.40;;;;;;;20.04;60.37;94883.41;5145442;27;20467;-77
2023/07/01 01:09:29;;;;;;;11.23;6.65;;;;;;;20.26;60.29;94915.22;5152285;27;20023;-77
2023/07/01 01:11:58;;;;;;;13.57;7.70;;;;;;;20.06;60.54;94883.88;5125147;27;20421;-77
2023/07/01 01:14:25;;;;;;;12.65;7.20;;;;;;;20.06;60.28;94891.16;5142524;27;20042;-77
2023/07/01 01:16:51;;;;;;;16.23;7.32;;;;;;;19.82;60.68;94868.56;5129988;27;20088;-77
2023/07/01 01:19:39;;;;;;;13.52;6.95;;;;;;;20.07;60.76;94908.84;5125047;27;20029;-78
2023/07/01 01:22:14;;;;;;;10.55;6.50;;;;;;;19.77;60.56;94841.06;5147625;27;20118;-77
2023/07/01 01:24:42;;;;;;;10.20;6.53;;;;;;;19.89;61.02;94870.66;5133294;27;20161;-77
2023/07/01 01:27:12;;;;;;;9.38;6.35;;;;;;;20.05;61.03;94898.44;5126276;27;20122;-77
2023/07/01 01:29:38;;;;;;;13.63;7.28;;;;;;;20.05;61.21;94898.44;5122348;27;20031;-78
2023/07/01 01:32:07;;;;;;;16.15;7.68;;;;;;;19.96;60.95;94879.72;5129455;27;20057;-77
2023/07/01 01:34:32;;;;;;;13.43;7.32;;;;;;;19.85;61.12;94867.06;5129533;27;20053;-79
2023/07/01 01:37:01;;;;;;;10.05;6.88;;;;;;;19.97;61.17;94894.75;5146477;27;20023;-78
2023/07/01 01:39:31;;;;;;;18.52;7.60;;;;;;;19.86;61.17;94866.75;5112453;27;20038;-79
2023/07/01 01:42:22;;;;;;;16.13;7.88;;;;;;;19.90;61.12;94870.34;5131155;27;20030;-79
2023/07/01 01:44:52;;;;;;;15.77;6.93;;;;;;;19.98;61.16;94879.41;5145124;27;20042;-79
2023/07/01 01:47:20;;;;;;;19.13;7.30;;;;;;;19.75;61.11;94854.88;5125932;27;20043;-79
2023/07/01 01:49:50;;;;;;;12.63;8.02;;;;;;;19.60;61.46;94845.59;5132597;27;20171;-79
2023/07/01 01:52:16;;;;;;;13.85;7.28;;;;;;;19.67;61.54;94847.72;5123550;27;20175;-78
2023/07/01 01:54:47;;;;;;;14.40;8.15;;;;;;;19.59;61.65;94829.78;5127411;27;20059;-78
2023/07/01 01:57:15;;;;;;;14.30;7.88;;;;;;;19.64;61.21;94845.69;5128884;27;20039;-78
2023/07/01 01:59:43;;;;;;;11.85;7.80;;;;;;;19.78;61.06;94866.84;5121872;27;20039;-78
2023/07/01 02:02:09;;;;;;;18.98;8.40;;;;;;;20.00;61.20;94885.22;5147854;27;20058;-79
2023/07/01 02:04:34;;;;;;;14.57;7.72;;;;;;;19.87;61.08;94865.63;5118105;27;20079;-78
2023/07/01 02:07:00;;;;;;;16.33;8.55;;;;;;;19.91;61.08;94871.88;5151267;27;20138;-78
2023/07/01 02:09:25;;;;;;;19.42;9.05;;;;;;;20.02;60.92;94883.75;5151328;27;20031;-78
2023/07/01 02:11:51;;;;;;;20.75;9.02;;;;;;;19.96;61.01;94868.19;5150831;27;20037;-78
2023/07/01 02:14:16;;;;;;;17.35;8.65;;;;;;;19.85;60.86;94865.16;5150742;27;20030;-78
2023/07/01 02:16:41;;;;;;;15.98;8.77;;;;;;;20.00;60.92;94888.69;5151121;27;20046;-79
2023/07/01 02:19:07;;;;;;;20.02;10.23;;;;;;;19.08;63.88;94876.91;5126883;27;20031;-78
2023/07/01 02:21:32;;;;;;;12.00;8.70;;;;;;;19.15;64.99;94894.06;5151130;27;20102;-78
2023/07/01 02:23:58;;;;;;;20.83;8.88;;;;;;;19.30;63.73;94870.34;5119525;27;20016;-78
2023/07/01 02:26:24;;;;;;;14.07;8.75;;;;;;;19.59;63.19;94886.28;5124820;27;20031;-78
2023/07/01 02:28:50;;;;;;;18.25;7.88;;;;;;;19.60;62.43;94877.09;5128514;27;20059;-78
2023/07/01 02:31:18;;;;;;;14.18;7.60;;;;;;;19.71;62.55;94883.56;5128825;27;20084;-78
2023/07/01 02:33:44;;;;;;;14.88;8.82;;;;;;;19.76;62.45;94880.66;5128869;27;20039;-78
2023/07/01 02:36:09;;;;;;;13.73;8.48;;;;;;;19.78;62.50;94883.00;5111022;27;20054;-78
2023/07/01 02:38:35;;;;;;;13.85;8.32;;;;;;;19.59;62.27;94856.69;5128485;27;20434;-79
2023/07/01 02:41:01;;;;;;;14.77;7.32;;;;;;;19.56;62.44;94858.16;5130798;27;20107;-79
2023/07/01 02:43:27;;;;;;;16.00;8.50;;;;;;;19.67;62.43;94869.25;5128589;27;20055;-78
2023/07/01 02:45:52;;;;;;;15.55;7.68;;;;;;;19.55;62.40;94874.63;5150254;27;20043;-78
2023/07/01 02:48:17;;;;;;;10.88;7.20;;;;;;;19.13;63.79;94871.34;5131503;27;20042;-79
2023/07/01 02:50:44;;;;;;;11.98;7.35;;;;;;;19.17;64.45;94907.94;5132080;27;20088;-78
2023/07/01 02:53:09;;;;;;;19.05;7.25;;;;;;;19.17;64.18;94897.19;5123413;28;20474;-78
2023/07/01 02:55:35;;;;;;;20.73;8.30;;;;;;;18.66;64.41;94842.16;5129261;27;20412;-79
2023/07/01 02:58:01;;;;;;;16.10;7.82;;;;;;;18.99;64.30;94878.94;5128698;27;20034;-78
2023/07/01 03:00:27;;;;;;;11.68;7.03;;;;;;;19.09;64.20;94889.22;5121104;28;20478;-78
2023/07/01 03:02:52;;;;;;;10.02;6.97;;;;;;;18.94;64.29;94887.97;5113475;28;20083;-79
2023/07/01 03:05:21;;;;;;;15.32;7.10;;;;;;;18.95;64.67;94900.31;5129833;27;20041;-78
2023/07/01 03:07:47;;;;;;;11.60;6.78;;;;;;;18.70;65.03;94893.28;5119520;28;20171;-79
2023/07/01 03:10:13;;;;;;;13.52;6.70;;;;;;;19.12;64.74;94920.84;5127133;28;20031;-79
2023/07/01 03:12:38;;;;;;;13.07;7.47;;;;;;;19.27;64.07;94915.59;5108230;27;20033;-78
2023/07/01 03:15:04;;;;;;;13.50;6.70;;;;;;;18.86;64.15;94873.53;5128787;27;20171;-78
2023/07/01 03:17:30;;;;;;;8.63;6.40;;;;;;;18.74;63.97;94878.88;5135258;27;20084;-78
2023/07/01 03:19:55;;;;;;;13.25;7.63;;;;;;;19.09;63.25;94910.72;5135239;27;20037;-79
2023/07/01 03:22:20;;;;;;;15.13;7.90;;;;;;;18.72;62.36;94854.25;5135837;27;20409;-79
2023/07/01 03:24:46;;;;;;;12.90;5.95;;;;;;;18.81;63.30;94883.69;5135706;27;20405;-78
2023/07/01 03:27:11;;;;;;;11.15;6.25;;;;;;;18.32;65.10;94898.81;5153486;27;20046;-78
2023/07/01 03:29:37;;;;;;;8.68;5.88;;;;;;;18.44;64.34;94896.19;5147491;27;20046;-78
2023/07/01 03:32:05;;;;;;;9.70;6.22;;;;;;;18.29;63.89;94868.06;5152661;27;20035;-78
2023/07/01 03:34:30;;;;;;;8.73;6.18;;;;;;;18.10;64.48;94859.69;5143787;27;20039;-79
2023/07/01 03:36:56;;;;;;;8.60;5.70;;;;;;;18.77;63.62;94915.00;5135768;27;20029;-79
2023/07/01 03:39:21;;;;;;;10.73;5.90;;;;;;;18.75;62.94;94876.97;5154065;27;20413;-79
2023/07/01 03:41:47;;;;;;;8.88;6.45;;;;;;;18.89;62.70;94894.38;5125653;27;20044;-79
2023/07/01 03:44:12;;;;;;;11.00;6.00;;;;;;;18.98;62.47;94885.41;5123983;27;20045;-79
2023/07/01 03:46:38;;;;;;;17.88;6.75;;;;;;;19.07;62.43;94897.63;5146533;27;20058;-79
2023/07/01 03:49:03;;;;;;;7.82;5.82;;;;;;;19.17;62.29;94902.56;5131521;27;20068;-79
2023/07/01 03:51:32;;;;;;;10.50;7.38;;;;;;;18.87;62.13;94866.25;5149734;27;20456;-79
2023/07/01 03:53:57;;;;;;;11.88;7.05;;;;;;;19.21;61.91;94902.72;5153957;27;20477;-79
2023/07/01 03:56:22;;;;;;;10.23;6.35;;;;;;;19.02;62.09;94873.66;5135203;27;20038;-79
2023/07/01 03:58:48;;;;;;;9.25;6.60;;;;;;;18.85;62.68;94898.03;5134388;27;20043;-79
2023/07/01 04:01:16;;;;;;;9.45;6.30;;;;;;;19.05;62.04;94904.47;5134794;27;20522;-79
2023/07/01 04:03:42;;;;;;;15.00;7.80;;;;;;;19.06;61.74;94890.69;5134393;27;20023;-79
2023/07/01 04:06:07;;;;;;;12.32;7.30;;;;;;;19.13;62.16;94923.19;5153724;27;20038;-79
2023/07/01 04:08:33;;;;;;;13.77;7.82;;;;;;;19.11;61.98;94898.53;5154101;27;20038;-79
2023/07/01 04:10:59;;;;;;;10.63;6.90;;;;;;;18.95;61.83;94860.00;5153196;27;20039;-79
2023/07/01 04:13:24;;;;;;;13.07;7.50;;;;;;;19.37;61.56;94921.66;5153780;27;20114;-79
2023/07/01 04:15:50;;;;;;;12.95;6.95;;;;;;;19.37;61.07;94897.47;5153721;27;20392;-79
2023/07/01 04:18:15;;;;;;;12.10;6.97;;;;;;;19.28;61.48;94911.00;5134714;27;20420;-79
2023/07/01 04:20:41;;;;;;;10.05;6.60;;;;;;;19.25;60.88;94872.13;5134435;27;20030;-79
2023/07/01 04:23:06;;;;;;;11.13;7.25;;;;;;;19.52;60.83;94918.34;5131183;27;20057;-79
2023/07/01 04:25:32;;;;;;;13.93;7.28;;;;;;;19.02;60.40;94819.91;5145102;27;20045;-79
2023/07/01 04:27:59;;;;;;;11.43;7.43;;;;;;;19.19;60.05;94835.03;5133822;27;20066;-79
2023/07/01 04:30:24;;;;;;;13.13;7.95;;;;;;;19.61;60.27;94905.53;5149188;27;20038;-79
2023/07/01 04:32:50;;;;;;;13.93;7.05;;;;;;;19.78;60.50;94913.38;5152781;27;20034;-79
2023/07/01 04:35:15;;;;;;;9.52;7.82;;;;;;;19.73;60.25;94894.78;5134458;27;20045;-79
2023/07/01 04:37:41;;;;;;;14.73;7.93;;;;;;;19.90;59.83;94915.28;5134413;27;20482;-79
2023/07/01 04:40:07;;;;;;;12.25;7.47;;;;;;;19.87;59.87;94905.97;5134445;27;20061;-79
2023/07/01 04:42:34;;;;;;;15.23;9.00;;;;;;;19.83;59.64;94897.03;5144871;27;20401;-79
2023/07/01 04:45:00;;;;;;;8.52;7.07;;;;;;;19.63;60.01;94860.25;5126204;27;20042;-79
2023/07/01 04:47:27;;;;;;;14.35;8.38;;;;;;;19.77;60.09;94879.53;5150513;27;20027;-79
2023/07/01 04:49:52;;;;;;;11.43;7.82;;;;;;;19.52;60.38;94838.44;5139000;27;20043;-79
2023/07/01 04:52:28;;;;;;;8.80;7.82;;;;;;;19.61;60.35;94855.22;5147125;27;20035;-79
2023/07/01 04:54:53;;;;;;;13.35;9.75;;;;;;;19.81;60.22;94868.88;5149990;27;20425;-79
2023/07/01 04:57:19;;;;;;;14.25;9.43;;;;;;;19.64;60.40;94840.31;5133162;27;20026;-80
2023/07/01 04:59:44;;;;;;;14.25;10.45;;;;;;;19.67;61.12;94871.16;5152029;27;20500;-79
2023/07/01 05:02:10;;;;;;;14.55;10.35;;;;;;;20.08;60.89;94915.81;5151375;27;20027;-79
2023/07/01 05:04:37;;;;;;;16.70;10.27;;;;;;;20.04;61.18;94927.28;5115634;27;20036;-79
2023/07/01 05:07:03;;;;;;;15.35;10.02;;;;;;;19.68;61.41;94878.09;5123589;27;20092;-79
2023/07/01 05:09:29;;;;;;;23.05;10.68;;;;;;;19.71;61.51;94878.19;5112677;27;20041;-79
2023/07/01 05:11:55;;;;;;;12.45;9.50;;;;;;;19.79;61.32;94884.56;5129031;27;20047;-79
2023/07/01 05:14:20;;;;;;;17.85;10.30;;;;;;;20.21;60.85;94926.25;5133131;27;20033;-79
2023/07/01 05:16:45;;;;;;;12.40;10.10;;;;;;;20.09;60.62;94898.53;5133634;27;20049;-79
2023/07/01 05:19:11;;;;;;;16.52;10.80;;;;;;;19.96;60.69;94879.72;5133683;27;20086;-79
2023/07/01 05:21:37;;;;;;;21.30;10.30;;;;;;;19.94;61.29;94919.66;5133396;27;20026;-79
2023/07/01 05:24:04;;;;;;;17.35;10.38;;;;;;;20.07;60.93;94911.53;5129659;27;20357;-79
2023/07/01 05:26:29;;;;;;;15.25;11.32;;;;;;;20.06;60.77;94905.41;5124970;27;20039;-79
2023/07/01 05:28:56;;;;;;;23.10;11.43;;;;;;;20.07;60.90;94906.94;5119391;27;20490;-78
2023/07/01 05:31:22;;;;;;;19.38;10.48;;;;;;;20.03;60.58;94863.78;5131721;27;20042;-78
2023/07/01 05:33:47;;;;;;;14.02;11.10;;;;;;;20.38;60.44;94899.03;5132298;27;20505;-78
2023/07/01 05:36:12;;;;;;;19.80;11.20;;;;;;;20.10;60.74;94878.56;5152077;27;20035;-79
2023/07/01 05:38:40;;;;;;;15.88;10.82;;;;;;;20.44;60.42;94918.47;5131622;27;20030;-79
2023/07/01 05:41:05;;;;;;;17.38;10.35;;;;;;;20.39;59.99;94886.38;5141899;27;20455;-79
2023/07/01 05:43:30;;;;;;;17.15;10.82;;;;;;;20.11;59.76;94835.16;5142279;27;20126;-79
2023/07/01 05:45:56;;;;;;;17.20;11.40;;;;;;;20.56;60.05;94933.78;5132771;27;20035;-79
2023/07/01 05:48:21;;;;;;;16.10;10.52;;;;;;;20.16;59.92;94861.84;5133484;27;20031;-79
2023/07/01 05:50:47;;;;;;;19.40;10.90;;;;;;;20.15;59.64;94849.50;5132784;27;20560;-79
2023/07/01 05:53:12;;;;;;;16.48;11.05;;;;;;;20.76;59.27;94930.09;5151004;27;20079;-79
2023/07/01 05:55:38;;;;;;;18.70;10.90;;;;;;;20.31;59.70;94882.66;5148836;27;20061;-79
2023/07/01 05:58:03;;;;;;;19.02;11.05;;;;;;;20.54;59.28;94909.09;5133008;27;20197;-79
2023/07/01 06:00:29;;;;;;;14.95;9.93;;;;;;;20.67;58.97;94910.63;5151045;27;20351;-79
2023/07/01 06:02:54;;;;;;;24.52;10.23;;;;;;;20.63;58.85;94928.59;5132621;27;20018;-79
2023/07/01 06:05:20;;;;;;;16.75;9.63;;;;;;;20.63;58.41;94904.34;5147571;27;20031;-79
2023/07/01 06:07:45;;;;;;;16.80;10.38;;;;;;;20.95;58.20;94932.16;5129141;27;20444;-79
2023/07/01 06:10:11;;;;;;;19.35;9.80;;;;;;;20.91;58.06;94923.19;5129237;27;20095;-79
2023/07/01 06:12:36;;;;;;;17.67;11.20;;;;;;;21.11;57.81;94941.84;5139730;27;20023;-79
2023/07/01 06:15:02;;;;;;;17.80;10.32;;;;;;;20.91;57.95;94921.28;5128507;27;20027;-79
2023/07/01 06:17:27;;;;;;;14.32;9.90;;;;;;;20.74;58.57;94924.31;5130163;27;20087;-79
2023/07/01 06:19:53;;;;;;;20.60;10.52;;;;;;;21.06;57.61;94933.22;5130443;27;20039;-78
2023/07/01 06:22:18;;;;;;;16.95;11.02;;;;;;;20.65;57.28;94872.47;5139595;27;20038;-78
2023/07/01 06:24:43;;;;;;;15.30;9.95;;;;;;;21.06;57.18;94915.13;5130275;27;20091;-78
2023/07/01 06:27:09;;;;;;;13.63;9.90;;;;;;;21.18;57.15;94928.59;5129297;27;20031;-78
2023/07/01 06:29:35;;;;;;;14.13;9.40;;;;;;;21.03;56.31;94891.56;5128916;27;20077;-79
2023/07/01 06:32:00;;;;;;;16.73;9.80;;;;;;;21.21;56.67;94916.31;5128872;27;20092;-78
2023/07/01 06:34:26;;;;;;;15.43;10.32;;;;;;;21.14;56.78;94924.19;5128753;27;20062;-79
2023/07/01 06:36:52;;;;;;;13.18;9.85;;;;;;;21.05;56.61;94893.94;5144090;27;20041;-79
2023/07/01 06:39:17;;;;;;;12.80;9.30;;;;;;;21.25;56.27;94933.38;5150857;27;20033;-78
2023/07/01 06:41:43;;;;;;;15.75;9.48;;;;;;;21.27;56.28;94906.06;5150783;27;20034;-79
2023/07/01 06:44:08;;;;;;;23.70;9.77;;;;;;;21.35;56.11;94911.28;5129853;27;20015;-79
2023/07/01 06:46:33;;;;;;;15.25;9.82;;;;;;;21.41;55.61;94892.94;5129005;27;20034;-78
2023/07/01 06:48:59;;;;;;;16.33;10.57;;;;;;;21.49;56.46;94913.56;5127860;27;20023;-79
2023/07/01 06:51:24;;;;;;;19.77;10.23;;;;;;;21.70;56.43;94924.84;5130419;27;20088;-79
2023/07/01 06:53:50;;;;;;;17.15;10.10;;;;;;;21.49;55.42;94910.84;5150611;27;20027;-79
2023/07/01 06:56:15;;;;;;;17.58;10.00;;;;;;;21.36;55.58;94893.94;5120803;28;20113;-79
2023/07/01 06:58:40;;;;;;;15.25;9.20;;;;;;;21.35;55.71;94889.72;5133876;27;20030;-78
2023/07/01 07:01:06;;;;;;;18.00;9.70;;;;;;;21.40;55.35;94877.88;5132155;27;20160;-79
2023/07/01 07:03:33;;;;;;;16.63;9.60;;;;;;;21.26;55.11;94854.03;5140319;27;20110;-79
2023/07/01 07:06:00;;;;;;;13.00;8.73;;;;;;;21.65;54.67;94903.53;5128498;28;20031;-79
2023/07/01 07:08:25;;;;;;;18.92;8.95;;;;;;;21.85;54.36;94909.75;5139850;27;20130;-79
2023/07/01 07:10:51;;;;;;;10.07;8.60;;;;;;;21.72;53.82;94901.00;5147090;27;20585;-79
2023/07/01 07:13:19;;;;;;;15.55;9.55;;;;;;;21.58;53.73;94844.00;5112133;27;20037;-79
2023/07/01 07:15:45;;;;;;;15.50;8.80;;;;;;;21.79;54.62;94870.69;5131473;27;20081;-79
2023/07/01 07:18:11;;;;;;;12.38;8.90;;;;;;;21.37;53.84;94792.25;5149600;27;20051;-79
2023/07/01 07:20:38;;;;;;;18.42;8.90;;;;;;;21.68;53.11;94835.34;5150586;27;20035;-79
2023/07/01 07:23:06;;;;;;;11.18;8.40;;;;;;;22.11;53.24;94893.03;5150384;27;20031;-79
2023/07/01 07:25:35;;;;;;;16.10;8.63;;;;;;;22.10;53.62;94876.03;5125140;28;20034;-79
2023/07/01 07:28:03;;;;;;;16.98;8.95;;;;;;;22.29;53.01;94891.47;5129376;28;20114;-79
2023/07/01 07:30:28;;;;;;;17.30;9.48;;;;;;;22.33;53.29;94895.81;5129158;27;20100;-79
2023/07/01 07:32:54;;;;;;;13.57;8.73;;;;;;;22.25;52.80;94888.72;5122631;28;20035;-79
2023/07/01 07:35:19;;;;;;;16.02;8.57;;;;;;;22.29;54.06;94881.44;5115064;28;20110;-79
2023/07/01 07:37:45;;;;;;;11.43;8.20;;;;;;;22.38;53.57;94888.56;5120860;28;20506;-79
2023/07/01 07:40:11;;;;;;;17.83;8.40;;;;;;;22.40;53.50;94889.00;5127653;27;20179;-79
2023/07/01 07:42:37;;;;;;;15.55;8.88;;;;;;;22.55;52.84;94885.44;5127211;27;20441;-79
2023/07/01 07:45:05;;;;;;;16.08;8.80;;;;;;;22.55;53.70;94880.81;5150807;27;20117;-79
2023/07/01 07:47:31;;;;;;;14.65;8.23;;;;;;;22.53;53.02;94876.91;5127623;27;20023;-79
2023/07/01 07:49:57;;;;;;;29.30;9.52;;;;;;;22.53;52.88;94860.69;5148934;27;20569;-79
2023/07/01 07:52:23;;;;;;;19.92;8.35;;;;;;;22.55;52.46;94850.31;5131439;27;20099;-79
2023/07/01 07:54:48;;;;;;;15.90;7.55;;;;;;;22.51;52.40;94822.41;5131405;27;20034;-79
2023/07/01 07:57:14;;;;;;;10.18;7.70;;;;;;;22.86;53.47;94868.31;5124449;28;20026;-79
2023/07/01 07:59:43;;;;;;;14.93;8.68;;;;;;;22.58;53.14;94846.91;5128492;27;20497;-79
2023/07/01 08:02:09;;;;;;;11.95;8.50;;;;;;;22.75;53.23;94856.50;5130739;27;20035;-79
2023/07/01 08:04:36;;;;;;;13.50;8.25;;;;;;;22.87;53.22;94859.84;5132656;27;20114;-79
2023/07/01 08:07:01;;;;;;;12.10;8.25;;;;;;;22.84;54.35;94841.63;5131471;27;20080;-79
2023/07/01 08:09:28;;;;;;;15.23;7.70;;;;;;;23.11;53.70;94869.53;5131082;27;20023;-79
2023/07/01 08:11:58;;;;;;;13.52;8.30;;;;;;;22.81;52.33;94825.34;5132212;27;20548;-79
2023/07/01 08:14:25;;;;;;;11.70;8.60;;;;;;;23.13;52.04;94839.41;5132464;27;20034;-79
2023/07/01 08:16:50;;;;;;;18.92;8.27;;;;;;;23.14;52.14;94839.03;5131477;27;20039;-79
2023/07/01 08:19:16;;;;;;;14.93;8.13;;;;;;;23.19;51.54;94849.56;5130897;27;20051;-79
2023/07/01 08:21:41;;;;;;;11.32;7.75;;;;;;;23.29;50.79;94824.59;5145303;27;20031;-79
2023/07/01 08:24:10;;;;;;;9.38;7.43;;;;;;;23.44;49.92;94844.56;5153403;27;20435;-79
2023/07/01 08:26:35;;;;;;;13.93;7.70;;;;;;;23.14;49.07;94811.22;5153327;27;20034;-79
2023/07/01 08:29:02;;;;;;;18.80;7.68;;;;;;;23.38;49.50;94830.56;5153648;27;20034;-79
2023/07/01 08:31:31;;;;;;;11.55;7.38;;;;;;;23.27;50.02;94807.16;5133927;27;20114;-79
2023/07/01 08:33:56;;;;;;;12.10;5.80;;;;;;;23.42;49.44;94814.38;5129260;27;20026;-79
2023/07/01 08:36:22;;;;;;;13.98;6.70;;;;;;;23.47;48.63;94816.78;5127940;27;20080;-79
2023/07/01 08:38:47;;;;;;;11.38;6.93;;;;;;;23.45;48.41;94821.75;5146831;27;20037;-79
2023/07/01 08:41:16;;;;;;;8.75;6.53;;;;;;;23.45;48.59;94844.19;5152905;27;20081;-79
2023/07/01 08:43:50;;;;;;;11.40;6.88;;;;;;;23.37;49.42;94820.88;5147091;27;20041;-79
2023/07/01 08:46:18;;;;;;;13.93;7.18;;;;;;;23.64;49.28;94831.75;5141698;27;20033;-79
2023/07/01 08:48:45;;;;;;;11.00;5.93;;;;;;;23.56;49.63;94792.97;5130495;27;20047;-79
2023/07/01 08:51:28;;;;;;;9.10;5.45;;;;;;;23.54;48.44;94780.94;5152123;27;20050;-79
2023/07/01 08:53:58;;;;;;;7.93;5.60;;;;;;;23.69;48.71;94812.47;5120907;27;20035;-79
2023/07/01 08:56:24;;;;;;;11.25;5.90;;;;;;;23.99;48.17;94824.13;5142976;27;20039;-79
2023/07/01 08:58:50;;;;;;;7.65;5.85;;;;;;;23.99;47.17;94807.09;5135030;27;20031;-80
2023/07/01 09:01:17;;;;;;;12.18;6.03;;;;;;;24.11;47.15;94829.28;5131246;27;20126;-79
2023/07/01 09:03:42;;;;;;;9.60;5.38;;;;;;;23.87;46.56;94791.84;5129482;27;20510;-80
2023/07/01 09:06:08;;;;;;;8.15;5.78;;;;;;;24.10;46.75;94799.88;5130553;27;20031;-79
2023/07/01 09:08:40;;;;;;;6.18;4.90;;;;;;;24.08;46.77;94786.69;5152539;27;20045;-80
2023/07/01 09:11:16;;;;;;;9.00;5.80;;;;;;;24.42;45.91;94825.44;5152199;27;20063;-80
2023/07/01 09:13:43;;;;;;;11.75;6.22;;;;;;;24.06;46.69;94758.41;5141928;27;20477;-80
2023/07/01 09:16:09;;;;;;;11.18;6.22;;;;;;;24.51;47.46;94817.81;5137312;27;20046;-80
2023/07/01 09:18:35;;;;;;;10.63;5.72;;;;;;;24.50;45.42;94810.03;5122774;27;20066;-80
2023/07/01 09:21:01;;;;;;;11.60;5.95;;;;;;;24.57;45.53;94805.47;5125085;27;20079;-80
2023/07/01 09:23:35;;;;;;;8.20;5.43;;;;;;;24.56;45.66;94803.91;5116143;27;20362;-79
2023/07/01 09:26:14;;;;;;;7.72;5.50;;;;;;;24.79;44.87;94805.72;5130111;27;20469;-80
2023/07/01 09:28:44;;;;;;;10.40;4.78;;;;;;;24.81;43.90;94798.75;5129894;27;20039;-80
2023/07/01 09:31:14;;;;;;;8.93;4.97;;;;;;;24.65;43.89;94771.09;5107938;27;20027;-79
2023/07/01 09:33:55;;;;;;;12.07;5.22;;;;;;;24.54;43.89;94752.03;5151763;27;20553;-79
2023/07/01 09:36:25;;;;;;;12.73;5.78;;;;;;;24.72;45.06;94765.72;5129666;27;20035;-80
2023/07/01 09:38:51;;;;;;;12.88;5.25;;;;;;;24.89;43.77;94775.97;5151519;27;20035;-80
2023/07/01 09:41:19;;;;;;;7.20;5.05;;;;;;;25.01;46.44;94793.16;5152080;27;20031;-80
2023/07/01 09:43:44;;;;;;;14.07;5.35;;;;;;;24.89;43.98;94767.84;5118462;27;20103;-80
2023/07/01 09:46:10;;;;;;;7.45;4.72;;;;;;;25.04;43.82;94743.56;5123037;27;20532;-80
2023/07/01 09:48:36;;;;;;;9.45;5.13;;;;;;;25.96;43.47;94771.34;5151640;27;20031;-80
2023/07/01 09:51:03;;;;;;;9.07;4.70;;;;;;;26.61;41.99;94719.53;5151640;27;20642;-80
2023/07/01 09:53:36;;;;;;;11.95;4.97;;;;;;;27.91;39.54;94766.97;5113803;27;20031;-80
2023/07/01 09:56:03;;;;;;;11.15;5.00;;;;;;;28.51;37.89;94727.78;5128777;27;20035;-80
2023/07/01 09:58:31;;;;;;;9.38;4.30;;;;;;;29.66;35.73;94736.66;5130394;27;20031;-80
2023/07/01 10:00:57;;;;;;;9.00;4.28;;;;;;;30.40;33.91;94756.91;5120523;27;20148;-80
2023/07/01 10:03:25;;;;;;;9.82;4.85;;;;;;;31.16;32.96;94720.66;5126767;27;20066;-80
2023/07/01 10:05:51;;;;;;;10.10;4.68;;;;;;;32.08;33.76;94743.69;5150875;27;20129;-80
2023/07/01 10:08:17;;;;;;;4.22;3.83;;;;;;;32.49;33.01;94710.34;5128743;27;20053;-80
2023/07/01 10:10:44;;;;;;;6.60;4.35;;;;;;;32.99;30.83;94742.19;5146956;27;20396;-80
2023/07/01 10:13:12;;;;;;;8.02;4.57;;;;;;;33.25;29.71;94727.47;5142981;27;20034;-80
2023/07/01 10:15:39;;;;;;;8.13;4.13;;;;;;;33.62;28.97;94697.84;5128460;27;20433;-79
2023/07/01 10:18:22;;;;;;;10.68;4.05;;;;;;;33.80;29.68;94662.41;5128534;27;20041;-79
2023/07/01 10:20:50;;;;;;;5.80;4.15;;;;;;;34.17;30.01;94735.28;5128516;27;20068;-79
2023/07/01 10:23:16;;;;;;;7.10;3.72;;;;;;;34.78;28.80;94737.84;5139362;27;20038;-80
2023/07/01 10:25:41;;;;;;;6.65;4.75;;;;;;;34.84;29.40;94713.28;5150562;27;20516;-79
2023/07/01 10:28:14;;;;;;;7.68;4.68;;;;;;;35.10;27.89;94719.53;5127308;27;20031;-79
2023/07/01 10:30:45;;;;;;;6.43;4.47;;;;;;;34.93;28.00;94724.41;5131956;27;20481;-80
2023/07/01 10:33:39;;;;;;;8.80;4.80;;;;;;;34.77;28.17;94716.25;5128141;27;20031;-79
2023/07/01 10:36:11;;;;;;;4.95;3.97;;;;;;;34.98;29.17;94710.06;5138426;27;20043;-79
2023/07/01 10:38:38;;;;;;;6.47;4.40;;;;;;;34.44;29.33;94633.81;5123956;27;20035;-79
2023/07/01 10:41:04;;;;;;;4.97;3.72;;;;;;;35.29;28.93;94709.50;5130022;27;20039;-79
2023/07/01 10:43:34;;;;;;;5.50;4.50;;;;;;;35.13;27.64;94680.06;5141880;27;20422;-79
2023/07/01 10:46:13;;;;;;;5.97;4.45;;;;;;;35.10;27.54;94667.94;5150641;27;20034;-79
2023/07/01 10:48:43;;;;;;;9.43;4.22;;;;;;;35.39;28.72;94692.63;5131061;27;20038;-79
2023/07/01 10:51:13;;;;;;;4.97;4.40;;;;;;;35.52;26.90;94687.06;5124421;27;20091;-79
2023/07/01 10:54:11;;;;;;;9.90;4.70;;;;;;;35.57;27.90;94703.81;5148597;27;20046;-79
2023/07/01 10:57:16;;;;;;;7.28;4.88;;;;;;;35.67;27.55;94690.09;5080616;27;20051;-79
2023/07/01 10:59:41;;;;;;;6.07;4.43;;;;;;;35.75;26.95;94697.72;5135030;27;20026;-79
2023/07/01 11:02:09;;;;;;;8.55;4.32;;;;;;;34.60;27.42;94668.75;5134504;27;20027;-79
2023/07/01 11:04:54;;;;;;;7.07;4.68;;;;;;;34.67;27.82;94703.53;5141583;27;20126;-79
2023/07/01 11:07:27;;;;;;;5.78;4.70;;;;;;;34.30;27.34;94683.03;5101042;28;20031;-80
2023/07/01 11:09:53;;;;;;;6.90;4.88;;;;;;;34.48;27.42;94644.75;5144294;27;20459;-79
2023/07/01 11:12:19;;;;;;;5.70;4.47;;;;;;;34.96;27.54;94667.63;5138263;27;20012;-79
2023/07/01 11:14:45;;;;;;;6.38;4.80;;;;;;;35.15;28.80;94670.16;5149764;27;20038;-80
2023/07/01 11:17:12;;;;;;;7.72;4.13;;;;;;;35.25;27.83;94645.47;5150244;27;20074;-79
2023/07/01 11:19:38;;;;;;;8.98;4.20;;;;;;;35.57;29.21;94672.69;5121219;28;20035;-80
2023/07/01 11:22:05;;;;;;;5.55;4.15;;;;;;;35.64;29.39;94674.44;5127811;28;20092;-80
2023/07/01 11:24:31;;;;;;;5.78;4.15;;;;;;;35.81;28.38;94662.03;5128183;28;20035;-80
2023/07/01 11:27:02;;;;;;;5.80;4.43;;;;;;;35.98;26.71;94653.13;5123982;27;20080;-80